| time (UTC) | temp F | wind direction | speed MPH | gust MPH | rain 1hr in | rain 24hr in | rain mn in | humidity % | barometer mb |
| 20260902012031 | 93 | 96 | 4.0 | 10.0 | 0.00 | 0.00 | 0.00 | 48 | 1010.6 |
| 20260902010031 | 94 | 83 | 4.0 | 9.0 | 0.00 | 0.00 | 0.00 | 44 | 1010.5 |
| 20260902005031 | 95 | 61 | 2.0 | 9.0 | 0.00 | 0.00 | 0.00 | 43 | 1010.5 |
| 20260902004031 | 95 | 86 | 7.0 | 10.0 | 0.00 | 0.00 | 0.00 | 43 | 1010.7 |
| 20260902003031 | 96 | 87 | 1.0 | 8.0 | 0.00 | 0.00 | 0.00 | 42 | 1010.7 |
| 20260902002031 | 96 | 66 | 10.0 | 11.0 | 0.00 | 0.00 | 0.00 | 41 | 1010.6 |
| 20260902001031 | 96 | 104 | 6.0 | 11.0 | 0.00 | 0.00 | 0.00 | 41 | 1010.7 |
| 20260901234031 | 98 | 92 | 7.0 | 11.0 | 0.00 | 0.00 | 0.00 | 41 | 1010.6 |
| 20260901233031 | 98 | 51 | 5.0 | 10.0 | 0.00 | 0.00 | 0.00 | 40 | 1010.5 |
| 20260901232031 | 98 | 71 | 5.0 | 11.0 | 0.00 | 0.00 | 0.00 | 39 | 1010.5 |
| 20260901231031 | 98 | 47 | 5.0 | 11.0 | 0.00 | 0.00 | 0.00 | 40 | 1010.5 |
| 20260901230030 | 97 | 135 | 4.0 | 10.0 | 0.00 | 0.00 | 0.00 | 41 | 1010.6 |
| 20260901225031 | 97 | 79 | 2.0 | 6.0 | 0.00 | 0.00 | 0.00 | 40 | 1010.7 |
| 20260901224031 | 97 | 46 | 2.0 | 7.0 | 0.00 | 0.00 | 0.00 | 41 | 1010.7 |
| 20260901223030 | 98 | 89 | 3.0 | 13.0 | 0.00 | 0.00 | 0.00 | 40 | 1010.7 |
| 20260901222030 | 99 | 340 | 4.0 | 10.0 | 0.00 | 0.00 | 0.00 | 39 | 1010.6 |
| 20260901221031 | 99 | 111 | 8.0 | 12.0 | 0.00 | 0.00 | 0.00 | 39 | 1010.7 |
| 20260901220030 | 98 | 39 | 3.0 | 13.0 | 0.00 | 0.00 | 0.00 | 41 | 1010.8 |
| 20260901215030 | 98 | 92 | 4.0 | 13.0 | 0.00 | 0.00 | 0.00 | 40 | 1010.7 |
| 20260901214030 | 99 | 84 | 11.0 | 11.0 | 0.00 | 0.00 | 0.00 | 38 | 1010.7 |
| 20260901213031 | 99 | 67 | 6.0 | 8.0 | 0.00 | 0.00 | 0.00 | 38 | 1010.7 |
| 20260901212031 | 98 | 84 | 7.0 | 11.0 | 0.00 | 0.00 | 0.00 | 39 | 1010.8 |
| 20260901211030 | 98 | 91 | 3.0 | 11.0 | 0.00 | 0.00 | 0.00 | 41 | 1011.0 |
| 20260901210031 | 99 | 16 | 9.0 | 12.0 | 0.00 | 0.00 | 0.00 | 40 | 1011.1 |
| 20260901205030 | 98 | 140 | 4.0 | 11.0 | 0.00 | 0.00 | 0.00 | 40 | 1011.3 |
| 20260901204030 | 98 | 61 | 3.0 | 13.0 | 0.00 | 0.00 | 0.00 | 41 | 1011.4 |
| 20260901202031 | 98 | 38 | 1.0 | 9.0 | 0.00 | 0.00 | 0.00 | 41 | 1011.7 |
| 20260901201030 | 96 | 114 | 3.0 | 10.0 | 0.00 | 0.00 | 0.00 | 43 | 1011.9 |
| 20260901200030 | 98 | 5 | 4.0 | 11.0 | 0.00 | 0.00 | 0.00 | 42 | 1011.9 |
| 20260901195030 | 98 | 61 | 3.0 | 14.0 | 0.00 | 0.00 | 0.00 | 41 | 1012.1 |
| 20260901194031 | 98 | 65 | 4.0 | 8.0 | 0.00 | 0.00 | 0.00 | 41 | 1012.2 |
| 20260901193030 | 98 | 77 | 3.0 | 8.0 | 0.00 | 0.00 | 0.00 | 42 | 1012.3 |
| 20260901192030 | 97 | 90 | 4.0 | 10.0 | 0.00 | 0.00 | 0.00 | 42 | 1012.5 |
| 20260901191031 | 96 | 133 | 0.0 | 6.0 | 0.00 | 0.00 | 0.00 | 44 | 1012.6 |
| 20260901190030 | 97 | 5 | 2.0 | 9.0 | 0.00 | 0.00 | 0.00 | 44 | 1012.8 |
| 20260901184030 | 96 | 176 | 5.0 | 10.0 | 0.00 | 0.00 | 0.00 | 44 | 1013.1 |
| 20260901182030 | 96 | 117 | 2.0 | 11.0 | 0.00 | 0.00 | 0.00 | 46 | 1013.4 |
| 20260901181030 | 96 | 230 | 2.0 | 9.0 | 0.00 | 0.00 | 0.00 | 46 | 1013.5 |
| 20260901175030 | 94 | 129 | 1.0 | 7.0 | 0.00 | 0.00 | 0.00 | 48 | 1014.0 |
| 20260901174030 | 95 | 55 | 5.0 | 8.0 | 0.00 | 0.00 | 0.00 | 48 | 1014.1 |
| 20260901173030 | 95 | 59 | 10.0 | 11.0 | 0.00 | 0.00 | 0.00 | 48 | 1014.3 |
| 20260901172030 | 94 | 90 | 3.0 | 9.0 | 0.00 | 0.00 | 0.00 | 49 | 1014.3 |
| 20260901171030 | 93 | 96 | 2.0 | 9.0 | 0.00 | 0.00 | 0.00 | 51 | 1014.4 |
| 20260901170030 | 93 | 123 | 5.0 | 10.0 | 0.00 | 0.00 | 0.00 | 51 | 1014.6 |
| 20260901165030 | 93 | 77 | 3.0 | 9.0 | 0.00 | 0.00 | 0.00 | 50 | 1014.7 |
| 20260901164030 | 93 | 74 | 5.0 | 8.0 | 0.00 | 0.00 | 0.00 | 51 | 1014.7 |
| 20260901163030 | 92 | 82 | 4.0 | 9.0 | 0.00 | 0.00 | 0.00 | 52 | 1014.8 |
| 20260901162030 | 93 | 92 | 3.0 | 7.0 | 0.00 | 0.00 | 0.00 | 52 | 1014.9 |
| 20260901161030 | 92 | 190 | 3.0 | 5.0 | 0.00 | 0.00 | 0.00 | 56 | 1015.0 |
| 20260901160030 | 91 | 231 | 2.0 | 7.0 | 0.00 | 0.00 | 0.00 | 56 | 1015.0 |
| 20260901155030 | 91 | 171 | 6.0 | 6.0 | 0.00 | 0.00 | 0.00 | 57 | 1015.0 |
| 20260901154030 | 90 | 132 | 0.0 | 6.0 | 0.00 | 0.00 | 0.00 | 59 | 1015.0 |
| 20260901153030 | 89 | 184 | 3.0 | 6.0 | 0.00 | 0.00 | 0.00 | 60 | 1015.0 |
| 20260901152030 | 89 | 244 | 1.0 | 4.0 | 0.00 | 0.00 | 0.00 | 60 | 1015.0 |
| 20260901150030 | 88 | 259 | 0.0 | 6.0 | 0.00 | 0.00 | 0.00 | 64 | 1014.9 |
| 20260901145030 | 86 | 231 | 1.0 | 8.0 | 0.00 | 0.00 | 0.00 | 66 | 1014.9 |
| 20260901144030 | 86 | 302 | 2.0 | 7.0 | 0.00 | 0.00 | 0.00 | 68 | 1015.1 |
| 20260901143030 | 86 | 220 | 0.0 | 5.0 | 0.00 | 0.00 | 0.00 | 69 | 1015.2 |
| 20260901141030 | 84 | 261 | 0.0 | 5.0 | 0.00 | 0.00 | 0.00 | 73 | 1015.3 |
| 20260901140030 | 84 | 225 | 1.0 | 4.0 | 0.00 | 0.00 | 0.00 | 74 | 1015.4 |
| 20260901135030 | 84 | 225 | 2.0 | 5.0 | 0.00 | 0.00 | 0.00 | 74 | 1015.4 |
| 20260901134030 | 83 | 313 | 0.0 | 0.0 | 0.00 | 0.00 | 0.00 | 77 | 1015.2 |
| 20260901133030 | 82 | 224 | 0.0 | 0.0 | 0.00 | 0.00 | 0.00 | 78 | 1015.3 |
| 20260901132030 | 82 | 232 | 0.0 | 0.0 | 0.00 | 0.00 | 0.00 | 79 | 1015.2 |
| 20260901131030 | 81 | 209 | 0.0 | 0.0 | 0.00 | 0.00 | 0.00 | 80 | 1015.1 |
| 20260901125030 | 78 | 236 | 0.0 | 0.0 | 0.00 | 0.00 | 0.00 | 84 | 1014.8 |
| 20260901124030 | 77 | 236 | 0.0 | 0.0 | 0.00 | 0.00 | 0.00 | 84 | 1014.7 |
| 20260901123030 | 76 | 236 | 0.0 | 0.0 | 0.00 | 0.00 | 0.00 | 83 | 1014.6 |
| 20260901122030 | 76 | 236 | 0.0 | 0.0 | 0.00 | 0.00 | 0.00 | 83 | 1014.4 |
| 20260901121030 | 77 | 236 | 0.0 | 0.0 | 0.00 | 0.00 | 0.00 | 82 | 1014.3 |
| 20260901120030 | 77 | 236 | 0.0 | 0.0 | 0.00 | 0.00 | 0.00 | 82 | 1014.3 |
| 20260901115030 | 78 | 236 | 0.0 | 0.0 | 0.00 | 0.00 | 0.00 | 82 | 1014.1 |
| 20260901114030 | 78 | 237 | 0.0 | 0.0 | 0.00 | 0.00 | 0.00 | 81 | 1014.2 |
| 20260901113030 | 78 | 237 | 0.0 | 0.0 | 0.00 | 0.00 | 0.00 | 81 | 1014.3 |
| 20260901112030 | 78 | 237 | 0.0 | 0.0 | 0.00 | 0.00 | 0.00 | 81 | 1014.3 |
| 20260901111030 | 78 | 237 | 0.0 | 0.0 | 0.00 | 0.00 | 0.00 | 81 | 1014.2 |
| 20260901110030 | 78 | 237 | 0.0 | 0.0 | 0.00 | 0.00 | 0.00 | 80 | 1014.2 |
| 20260901105030 | 79 | 237 | 0.0 | 0.0 | 0.00 | 0.00 | 0.00 | 80 | 1014.1 |
| 20260901104030 | 79 | 237 | 0.0 | 0.0 | 0.00 | 0.00 | 0.00 | 79 | 1014.0 |
| 20260901103030 | 80 | 237 | 0.0 | 0.0 | 0.00 | 0.00 | 0.00 | 79 | 1013.9 |
| 20260901102030 | 80 | 237 | 0.0 | 0.0 | 0.00 | 0.00 | 0.00 | 79 | 1013.8 |
| 20260901101030 | 80 | 229 | 0.0 | 0.0 | 0.00 | 0.00 | 0.00 | 79 | 1013.9 |
| 20260901100030 | 80 | 178 | 0.0 | 2.0 | 0.00 | 0.00 | 0.00 | 79 | 1014.0 |
| 20260901095030 | 80 | 175 | 2.0 | 4.0 | 0.00 | 0.00 | 0.00 | 78 | 1013.9 |
| 20260901094030 | 80 | 227 | 0.0 | 4.0 | 0.00 | 0.00 | 0.00 | 78 | 1013.8 |
| 20260901092030 | 80 | 191 | 2.0 | 5.0 | 0.00 | 0.00 | 0.00 | 77 | 1014.0 |
| 20260901091030 | 81 | 196 | 2.0 | 5.0 | 0.00 | 0.00 | 0.00 | 76 | 1013.9 |
| 20260901090030 | 81 | 165 | 4.0 | 6.0 | 0.00 | 0.00 | 0.00 | 76 | 1014.0 |
| 20260901085030 | 81 | 179 | 3.0 | 5.0 | 0.00 | 0.00 | 0.00 | 75 | 1013.9 |
| 20260901084030 | 81 | 178 | 4.0 | 5.0 | 0.00 | 0.00 | 0.00 | 75 | 1013.8 |
| 20260901083030 | 82 | 197 | 1.0 | 5.0 | 0.00 | 0.00 | 0.00 | 74 | 1013.8 |
| 20260901082030 | 82 | 180 | 1.0 | 6.0 | 0.00 | 0.00 | 0.00 | 74 | 1013.8 |
| 20260901081030 | 82 | 192 | 2.0 | 6.0 | 0.00 | 0.00 | 0.00 | 73 | 1013.9 |
| 20260901080030 | 82 | 171 | 2.0 | 5.0 | 0.00 | 0.00 | 0.00 | 73 | 1013.9 |
| 20260901075030 | 82 | 183 | 3.0 | 5.0 | 0.00 | 0.00 | 0.00 | 73 | 1013.9 |
| 20260901074030 | 82 | 171 | 2.0 | 6.0 | 0.00 | 0.00 | 0.00 | 72 | 1013.9 |
| 20260901073030 | 82 | 169 | 2.0 | 7.0 | 0.00 | 0.00 | 0.00 | 72 | 1014.0 |
| 20260901072030 | 83 | 155 | 2.0 | 5.0 | 0.00 | 0.00 | 0.00 | 71 | 1014.0 |
| 20260901071030 | 83 | 164 | 4.0 | 6.0 | 0.00 | 0.00 | 0.00 | 71 | 1014.1 |
| 20260901070030 | 83 | 158 | 3.0 | 7.0 | 0.00 | 0.00 | 0.00 | 71 | 1014.0 |
| 20260901065030 | 83 | 178 | 3.0 | 9.0 | 0.00 | 0.00 | 0.00 | 70 | 1014.0 |
| 20260901064030 | 84 | 152 | 2.0 | 8.0 | 0.00 | 0.00 | 0.00 | 69 | 1013.9 |
| 20260901063030 | 84 | 153 | 5.0 | 9.0 | 0.00 | 0.00 | 0.00 | 69 | 1013.8 |
| 20260901062030 | 84 | 175 | 6.0 | 10.0 | 0.00 | 0.00 | 0.00 | 68 | 1013.8 |
| 20260901060030 | 85 | 165 | 7.0 | 10.0 | 0.00 | 0.00 | 0.00 | 67 | 1013.7 |
| 20260901054030 | 85 | 167 | 9.0 | 11.0 | 0.00 | 0.00 | 0.00 | 66 | 1013.5 |
| 20260901053030 | 85 | 147 | 3.0 | 8.0 | 0.00 | 0.00 | 0.00 | 65 | 1013.5 |
| 20260901052029 | 85 | 161 | 5.0 | 10.0 | 0.00 | 0.00 | 0.00 | 64 | 1013.5 |
| 20260901051030 | 86 | 159 | 5.0 | 10.0 | 0.00 | 0.00 | 0.00 | 64 | 1013.4 |
| 20260901045030 | 86 | 175 | 7.0 | 9.0 | 0.00 | 0.00 | 0.00 | 63 | 1013.3 |
| 20260901041030 | 87 | 144 | 2.0 | 10.0 | 0.00 | 0.00 | 0.00 | 60 | 1013.0 |
| 20260901040030 | 88 | 144 | 4.0 | 13.0 | 0.00 | 0.00 | 0.00 | 59 | 1013.1 |
| 20260901035030 | 88 | 134 | 3.0 | 11.0 | 0.00 | 0.00 | 0.00 | 58 | 1013.1 |
| 20260901034029 | 88 | 168 | 6.0 | 13.0 | 0.00 | 0.00 | 0.00 | 56 | 1013.0 |
| 20260901033029 | 89 | 173 | 5.0 | 14.0 | 0.00 | 0.00 | 0.00 | 55 | 1013.0 |
| 20260901032030 | 89 | 181 | 4.0 | 11.0 | 0.00 | 0.00 | 0.00 | 53 | 1012.9 |
| 20260901031030 | 89 | 169 | 4.0 | 13.0 | 0.00 | 0.00 | 0.00 | 52 | 1012.8 |
| 20260901030029 | 89 | 165 | 5.0 | 12.0 | 0.00 | 0.00 | 0.00 | 50 | 1012.7 |
| 20260901025030 | 89 | 143 | 5.0 | 8.0 | 0.00 | 0.00 | 0.00 | 48 | 1012.5 |
| 20260901024030 | 89 | 123 | 3.0 | 7.0 | 0.00 | 0.00 | 0.00 | 45 | 1012.3 |
| 20260901023029 | 89 | 123 | 2.0 | 4.0 | 0.00 | 0.00 | 0.00 | 44 | 1012.1 |
| 20260901022030 | 90 | 138 | 0.0 | 2.0 | 0.00 | 0.00 | 0.00 | 43 | 1012.0 |
| 20260901021029 | 90 | 123 | 0.0 | 1.0 | 0.00 | 0.00 | 0.00 | 42 | 1011.9 |
| 20260901020030 | 90 | 132 | 0.0 | 2.0 | 0.00 | 0.00 | 0.00 | 42 | 1011.7 |
| 20260901015029 | 91 | 107 | 0.0 | 2.0 | 0.00 | 0.00 | 0.00 | 41 | 1011.6 |
| 20260901013030 | 92 | 130 | 0.0 | 2.0 | 0.00 | 0.00 | 0.00 | 40 | 1011.5 |